sensor_id;sensor_type;location;lat;lon;timestamp;P1;durP1;ratioP1;P2;durP2;ratioP2
48268;SDS011;34088;52.232;5.196;2023-04-23T00:01:16;141.15;;;67.63;;
48268;SDS011;34088;52.232;5.196;2023-04-23T00:03:43;126.30;;;63.90;;
48268;SDS011;34088;52.232;5.196;2023-04-23T00:06:09;127.50;;;63.30;;
48268;SDS011;34088;52.232;5.196;2023-04-23T00:08:38;138.60;;;65.63;;
48268;SDS011;34088;52.232;5.196;2023-04-23T00:11:05;137.10;;;66.35;;
48268;SDS011;34088;52.232;5.196;2023-04-23T00:13:31;125.20;;;63.20;;
48268;SDS011;34088;52.232;5.196;2023-04-23T00:15:57;132.68;;;65.30;;
48268;SDS011;34088;52.232;5.196;2023-04-23T00:31:50;131.27;;;64.87;;
48268;SDS011;34088;52.232;5.196;2023-04-23T00:34:16;140.80;;;67.32;;
48268;SDS011;34088;52.232;5.196;2023-04-23T00:36:41;138.73;;;66.38;;
48268;SDS011;34088;52.232;5.196;2023-04-23T00:39:07;138.27;;;67.78;;
48268;SDS011;34088;52.232;5.196;2023-04-23T00:41:33;132.18;;;65.90;;
48268;SDS011;34088;52.232;5.196;2023-04-23T00:43:59;126.32;;;65.50;;
48268;SDS011;34088;52.232;5.196;2023-04-23T00:46:25;144.45;;;67.95;;
48268;SDS011;34088;52.232;5.196;2023-04-23T00:48:51;152.15;;;70.10;;
48268;SDS011;34088;52.232;5.196;2023-04-23T00:51:17;136.20;;;66.20;;
48268;SDS011;34088;52.232;5.196;2023-04-23T00:53:43;131.95;;;65.15;;
48268;SDS011;34088;52.232;5.196;2023-04-23T00:56:08;131.57;;;65.35;;
48268;SDS011;34088;52.232;5.196;2023-04-23T00:58:34;146.55;;;69.07;;
48268;SDS011;34088;52.232;5.196;2023-04-23T01:01:00;152.68;;;69.93;;
48268;SDS011;34088;52.232;5.196;2023-04-23T01:03:28;130.95;;;65.20;;
48268;SDS011;34088;52.232;5.196;2023-04-23T01:05:56;131.63;;;63.80;;
48268;SDS011;34088;52.232;5.196;2023-04-23T01:08:22;137.20;;;66.50;;
48268;SDS011;34088;52.232;5.196;2023-04-23T01:10:49;127.70;;;64.28;;
48268;SDS011;34088;52.232;5.196;2023-04-23T01:13:15;128.88;;;63.92;;
48268;SDS011;34088;52.232;5.196;2023-04-23T01:15:41;132.55;;;63.67;;
48268;SDS011;34088;52.232;5.196;2023-04-23T01:18:07;142.60;;;66.32;;
48268;SDS011;34088;52.232;5.196;2023-04-23T01:20:33;125.25;;;62.05;;
48268;SDS011;34088;52.232;5.196;2023-04-23T01:23:00;128.65;;;64.35;;
48268;SDS011;34088;52.232;5.196;2023-04-23T01:25:26;125.45;;;62.72;;
48268;SDS011;34088;52.232;5.196;2023-04-23T01:27:52;131.77;;;64.80;;
48268;SDS011;34088;52.232;5.196;2023-04-23T01:30:17;122.93;;;63.25;;
48268;SDS011;34088;52.232;5.196;2023-04-23T01:32:43;126.65;;;62.97;;
48268;SDS011;34088;52.232;5.196;2023-04-23T01:35:09;118.60;;;62.80;;
48268;SDS011;34088;52.232;5.196;2023-04-23T01:37:37;137.38;;;64.85;;
48268;SDS011;34088;52.232;5.196;2023-04-23T01:40:03;128.00;;;64.35;;
48268;SDS011;34088;52.232;5.196;2023-04-23T01:42:29;129.43;;;63.55;;
48268;SDS011;34088;52.232;5.196;2023-04-23T01:44:54;124.55;;;61.75;;
48268;SDS011;34088;52.232;5.196;2023-04-23T01:47:20;119.40;;;61.65;;
48268;SDS011;34088;52.232;5.196;2023-04-23T01:49:45;131.32;;;61.00;;
48268;SDS011;34088;52.232;5.196;2023-04-23T01:52:11;120.72;;;61.35;;
48268;SDS011;34088;52.232;5.196;2023-04-23T01:54:37;118.97;;;60.30;;
48268;SDS011;34088;52.232;5.196;2023-04-23T01:57:02;121.15;;;61.20;;
48268;SDS011;34088;52.232;5.196;2023-04-23T01:59:28;121.50;;;61.67;;
48268;SDS011;34088;52.232;5.196;2023-04-23T02:01:53;125.18;;;61.95;;
48268;SDS011;34088;52.232;5.196;2023-04-23T02:04:19;115.35;;;60.38;;
48268;SDS011;34088;52.232;5.196;2023-04-23T02:06:46;120.25;;;61.28;;
48268;SDS011;34088;52.232;5.196;2023-04-23T02:09:13;115.90;;;58.75;;
48268;SDS011;34088;52.232;5.196;2023-04-23T02:11:38;124.63;;;61.50;;
48268;SDS011;34088;52.232;5.196;2023-04-23T02:14:05;114.63;;;58.40;;
48268;SDS011;34088;52.232;5.196;2023-04-23T02:16:31;108.53;;;57.63;;
48268;SDS011;34088;52.232;5.196;2023-04-23T02:18:58;118.30;;;58.97;;
48268;SDS011;34088;52.232;5.196;2023-04-23T02:21:24;106.28;;;54.75;;
48268;SDS011;34088;52.232;5.196;2023-04-23T02:23:51;105.53;;;54.50;;
48268;SDS011;34088;52.232;5.196;2023-04-23T02:26:17;110.13;;;56.30;;
48268;SDS011;34088;52.232;5.196;2023-04-23T02:28:42;108.70;;;57.33;;
48268;SDS011;34088;52.232;5.196;2023-04-23T02:31:08;105.93;;;55.17;;
48268;SDS011;34088;52.232;5.196;2023-04-23T02:33:34;105.63;;;55.50;;
48268;SDS011;34088;52.232;5.196;2023-04-23T02:36:00;101.85;;;52.50;;
48268;SDS011;34088;52.232;5.196;2023-04-23T02:38:25;100.60;;;53.08;;
48268;SDS011;34088;52.232;5.196;2023-04-23T02:40:51;95.07;;;51.53;;
48268;SDS011;34088;52.232;5.196;2023-04-23T02:43:16;97.00;;;52.22;;
48268;SDS011;34088;52.232;5.196;2023-04-23T02:45:42;92.90;;;49.75;;
48268;SDS011;34088;52.232;5.196;2023-04-23T02:48:09;96.07;;;50.75;;
48268;SDS011;34088;52.232;5.196;2023-04-23T02:50:35;95.72;;;50.13;;
48268;SDS011;34088;52.232;5.196;2023-04-23T02:53:03;97.38;;;51.33;;
48268;SDS011;34088;52.232;5.196;2023-04-23T02:55:29;98.30;;;51.05;;
48268;SDS011;34088;52.232;5.196;2023-04-23T02:57:56;96.10;;;50.22;;
48268;SDS011;34088;52.232;5.196;2023-04-23T03:00:22;91.18;;;49.10;;
48268;SDS011;34088;52.232;5.196;2023-04-23T03:02:48;92.88;;;48.72;;
48268;SDS011;34088;52.232;5.196;2023-04-23T03:05:14;89.35;;;48.38;;
48268;SDS011;34088;52.232;5.196;2023-04-23T03:07:40;90.63;;;49.15;;
48268;SDS011;34088;52.232;5.196;2023-04-23T03:10:05;85.53;;;46.33;;
48268;SDS011;34088;52.232;5.196;2023-04-23T03:12:32;92.22;;;50.40;;
48268;SDS011;34088;52.232;5.196;2023-04-23T03:14:57;83.35;;;47.72;;
48268;SDS011;34088;52.232;5.196;2023-04-23T03:17:23;88.38;;;48.10;;
48268;SDS011;34088;52.232;5.196;2023-04-23T03:19:48;90.15;;;48.17;;
48268;SDS011;34088;52.232;5.196;2023-04-23T03:22:14;78.70;;;44.45;;
48268;SDS011;34088;52.232;5.196;2023-04-23T03:24:40;85.47;;;47.70;;
48268;SDS011;34088;52.232;5.196;2023-04-23T03:27:05;80.35;;;45.70;;
48268;SDS011;34088;52.232;5.196;2023-04-23T03:29:31;77.90;;;44.28;;
48268;SDS011;34088;52.232;5.196;2023-04-23T03:31:56;82.45;;;46.03;;
48268;SDS011;34088;52.232;5.196;2023-04-23T03:34:22;83.60;;;46.33;;
48268;SDS011;34088;52.232;5.196;2023-04-23T03:36:47;81.57;;;47.22;;
48268;SDS011;34088;52.232;5.196;2023-04-23T03:39:14;79.90;;;45.60;;
48268;SDS011;34088;52.232;5.196;2023-04-23T03:41:39;79.85;;;45.78;;
48268;SDS011;34088;52.232;5.196;2023-04-23T03:44:05;78.72;;;43.90;;
48268;SDS011;34088;52.232;5.196;2023-04-23T03:46:30;83.47;;;46.72;;
48268;SDS011;34088;52.232;5.196;2023-04-23T03:48:56;83.18;;;45.85;;
48268;SDS011;34088;52.232;5.196;2023-04-23T03:51:22;81.50;;;44.38;;
48268;SDS011;34088;52.232;5.196;2023-04-23T03:53:48;79.45;;;44.90;;
48268;SDS011;34088;52.232;5.196;2023-04-23T03:56:14;77.75;;;44.55;;
48268;SDS011;34088;52.232;5.196;2023-04-23T03:58:40;77.22;;;44.60;;
48268;SDS011;34088;52.232;5.196;2023-04-23T04:01:05;74.45;;;42.35;;
48268;SDS011;34088;52.232;5.196;2023-04-23T04:03:31;83.18;;;45.33;;
48268;SDS011;34088;52.232;5.196;2023-04-23T04:05:56;83.30;;;46.15;;
48268;SDS011;34088;52.232;5.196;2023-04-23T04:08:22;83.13;;;44.67;;
48268;SDS011;34088;52.232;5.196;2023-04-23T04:10:48;77.95;;;45.20;;
48268;SDS011;34088;52.232;5.196;2023-04-23T04:13:13;80.40;;;45.30;;
48268;SDS011;34088;52.232;5.196;2023-04-23T04:15:40;75.00;;;42.92;;
48268;SDS011;34088;52.232;5.196;2023-04-23T04:18:05;81.18;;;45.20;;
48268;SDS011;34088;52.232;5.196;2023-04-23T04:20:31;82.43;;;44.50;;
48268;SDS011;34088;52.232;5.196;2023-04-23T04:22:56;79.80;;;45.40;;
48268;SDS011;34088;52.232;5.196;2023-04-23T04:30:13;73.20;;;41.38;;
48268;SDS011;34088;52.232;5.196;2023-04-23T04:32:39;79.20;;;43.45;;
48268;SDS011;34088;52.232;5.196;2023-04-23T04:35:06;79.32;;;43.53;;
48268;SDS011;34088;52.232;5.196;2023-04-23T04:37:36;80.13;;;44.00;;
48268;SDS011;34088;52.232;5.196;2023-04-23T04:40:02;77.57;;;44.10;;
48268;SDS011;34088;52.232;5.196;2023-04-23T04:42:29;81.45;;;44.17;;
48268;SDS011;34088;52.232;5.196;2023-04-23T04:44:55;76.03;;;43.03;;
48268;SDS011;34088;52.232;5.196;2023-04-23T04:47:23;78.78;;;44.25;;
48268;SDS011;34088;52.232;5.196;2023-04-23T04:49:49;74.07;;;43.17;;
48268;SDS011;34088;52.232;5.196;2023-04-23T04:52:15;70.65;;;41.80;;
48268;SDS011;34088;52.232;5.196;2023-04-23T04:54:41;76.90;;;43.40;;
48268;SDS011;34088;52.232;5.196;2023-04-23T04:57:07;71.20;;;41.45;;
48268;SDS011;34088;52.232;5.196;2023-04-23T04:59:32;70.95;;;42.38;;
48268;SDS011;34088;52.232;5.196;2023-04-23T05:01:58;72.60;;;41.33;;
48268;SDS011;34088;52.232;5.196;2023-04-23T05:04:24;68.57;;;40.85;;
48268;SDS011;34088;52.232;5.196;2023-04-23T05:06:49;70.47;;;41.25;;
48268;SDS011;34088;52.232;5.196;2023-04-23T05:09:15;66.22;;;40.00;;
48268;SDS011;34088;52.232;5.196;2023-04-23T05:11:41;65.07;;;39.13;;
48268;SDS011;34088;52.232;5.196;2023-04-23T05:14:07;67.35;;;40.03;;
48268;SDS011;34088;52.232;5.196;2023-04-23T05:16:33;61.67;;;38.42;;
48268;SDS011;34088;52.232;5.196;2023-04-23T05:18:58;63.65;;;38.33;;
48268;SDS011;34088;52.232;5.196;2023-04-23T05:21:24;64.95;;;39.72;;
48268;SDS011;34088;52.232;5.196;2023-04-23T05:23:51;69.22;;;39.25;;
48268;SDS011;34088;52.232;5.196;2023-04-23T05:26:17;62.65;;;39.45;;
48268;SDS011;34088;52.232;5.196;2023-04-23T05:28:43;61.90;;;38.10;;
48268;SDS011;34088;52.232;5.196;2023-04-23T05:31:09;58.13;;;37.33;;
48268;SDS011;34088;52.232;5.196;2023-04-23T05:33:35;61.45;;;37.10;;
48268;SDS011;34088;52.232;5.196;2023-04-23T05:36:01;59.80;;;37.63;;
48268;SDS011;34088;52.232;5.196;2023-04-23T05:38:26;60.05;;;37.33;;
48268;SDS011;34088;52.232;5.196;2023-04-23T05:40:52;61.08;;;36.35;;
48268;SDS011;34088;52.232;5.196;2023-04-23T05:43:17;60.55;;;37.97;;
48268;SDS011;34088;52.232;5.196;2023-04-23T05:45:43;57.92;;;38.25;;
48268;SDS011;34088;52.232;5.196;2023-04-23T05:48:09;55.08;;;36.15;;
48268;SDS011;34088;52.232;5.196;2023-04-23T05:50:35;55.22;;;36.72;;
48268;SDS011;34088;52.232;5.196;2023-04-23T05:53:00;55.83;;;36.75;;
48268;SDS011;34088;52.232;5.196;2023-04-23T05:55:26;56.15;;;35.33;;
48268;SDS011;34088;52.232;5.196;2023-04-23T05:57:52;55.78;;;35.28;;
48268;SDS011;34088;52.232;5.196;2023-04-23T06:00:18;57.00;;;35.72;;
48268;SDS011;34088;52.232;5.196;2023-04-23T06:02:44;53.08;;;33.85;;
48268;SDS011;34088;52.232;5.196;2023-04-23T06:05:10;52.60;;;34.95;;
48268;SDS011;34088;52.232;5.196;2023-04-23T06:07:36;48.28;;;32.85;;
48268;SDS011;34088;52.232;5.196;2023-04-23T06:10:02;49.92;;;33.90;;
48268;SDS011;34088;52.232;5.196;2023-04-23T06:12:29;45.88;;;32.10;;
48268;SDS011;34088;52.232;5.196;2023-04-23T06:14:55;45.70;;;32.20;;
48268;SDS011;34088;52.232;5.196;2023-04-23T06:17:21;43.28;;;32.08;;
48268;SDS011;34088;52.232;5.196;2023-04-23T06:19:47;49.55;;;32.50;;
48268;SDS011;34088;52.232;5.196;2023-04-23T06:22:12;46.33;;;31.90;;
48268;SDS011;34088;52.232;5.196;2023-04-23T06:24:38;42.30;;;30.35;;
48268;SDS011;34088;52.232;5.196;2023-04-23T06:27:03;42.90;;;30.58;;
48268;SDS011;34088;52.232;5.196;2023-04-23T06:29:29;43.35;;;30.77;;
48268;SDS011;34088;52.232;5.196;2023-04-23T06:31:55;40.97;;;29.25;;
48268;SDS011;34088;52.232;5.196;2023-04-23T06:34:22;41.20;;;29.73;;
48268;SDS011;34088;52.232;5.196;2023-04-23T06:36:49;38.50;;;28.33;;
48268;SDS011;34088;52.232;5.196;2023-04-23T06:39:15;38.90;;;27.80;;
48268;SDS011;34088;52.232;5.196;2023-04-23T06:41:40;38.22;;;27.70;;
48268;SDS011;34088;52.232;5.196;2023-04-23T06:44:06;37.78;;;27.10;;
48268;SDS011;34088;52.232;5.196;2023-04-23T06:46:31;35.28;;;26.80;;
48268;SDS011;34088;52.232;5.196;2023-04-23T06:48:57;35.58;;;27.17;;
48268;SDS011;34088;52.232;5.196;2023-04-23T06:51:24;35.47;;;27.13;;
48268;SDS011;34088;52.232;5.196;2023-04-23T06:53:50;35.78;;;26.65;;
48268;SDS011;34088;52.232;5.196;2023-04-23T06:56:16;35.22;;;26.30;;
48268;SDS011;34088;52.232;5.196;2023-04-23T06:58:41;32.85;;;25.02;;
48268;SDS011;34088;52.232;5.196;2023-04-23T07:01:07;34.75;;;25.25;;
48268;SDS011;34088;52.232;5.196;2023-04-23T07:03:34;29.20;;;23.00;;
48268;SDS011;34088;52.232;5.196;2023-04-23T07:06:00;31.90;;;24.20;;
48268;SDS011;34088;52.232;5.196;2023-04-23T07:08:25;27.85;;;22.27;;
48268;SDS011;34088;52.232;5.196;2023-04-23T07:10:51;29.33;;;22.02;;
48268;SDS011;34088;52.232;5.196;2023-04-23T07:13:17;25.73;;;21.08;;
48268;SDS011;34088;52.232;5.196;2023-04-23T07:15:43;25.63;;;20.25;;
48268;SDS011;34088;52.232;5.196;2023-04-23T07:18:08;23.25;;;19.05;;
48268;SDS011;34088;52.232;5.196;2023-04-23T07:20:34;23.38;;;17.60;;
48268;SDS011;34088;52.232;5.196;2023-04-23T07:23:00;23.60;;;19.20;;
48268;SDS011;34088;52.232;5.196;2023-04-23T07:25:27;25.25;;;18.50;;
48268;SDS011;34088;52.232;5.196;2023-04-23T07:27:53;23.27;;;18.85;;
48268;SDS011;34088;52.232;5.196;2023-04-23T07:30:19;25.15;;;18.58;;
48268;SDS011;34088;52.232;5.196;2023-04-23T07:32:45;23.30;;;17.45;;
48268;SDS011;34088;52.232;5.196;2023-04-23T07:35:11;20.23;;;14.82;;
48268;SDS011;34088;52.232;5.196;2023-04-23T07:37:36;20.42;;;15.35;;
48268;SDS011;34088;52.232;5.196;2023-04-23T07:40:02;19.00;;;14.77;;
48268;SDS011;34088;52.232;5.196;2023-04-23T07:42:29;17.45;;;13.07;;
48268;SDS011;34088;52.232;5.196;2023-04-23T07:44:55;16.75;;;12.50;;
48268;SDS011;34088;52.232;5.196;2023-04-23T07:47:21;17.42;;;11.93;;
48268;SDS011;34088;52.232;5.196;2023-04-23T07:49:47;16.73;;;11.05;;
48268;SDS011;34088;52.232;5.196;2023-04-23T07:52:12;18.20;;;10.55;;
48268;SDS011;34088;52.232;5.196;2023-04-23T07:54:39;18.20;;;10.70;;
48268;SDS011;34088;52.232;5.196;2023-04-23T07:57:05;16.88;;;11.18;;
48268;SDS011;34088;52.232;5.196;2023-04-23T07:59:30;16.23;;;9.43;;
48268;SDS011;34088;52.232;5.196;2023-04-23T08:01:56;14.38;;;8.93;;
48268;SDS011;34088;52.232;5.196;2023-04-23T08:04:21;20.83;;;10.40;;
48268;SDS011;34088;52.232;5.196;2023-04-23T08:06:47;15.13;;;9.18;;
48268;SDS011;34088;52.232;5.196;2023-04-23T08:09:13;14.57;;;8.82;;
48268;SDS011;34088;52.232;5.196;2023-04-23T08:11:39;12.45;;;8.05;;
48268;SDS011;34088;52.232;5.196;2023-04-23T08:14:05;17.13;;;8.52;;
48268;SDS011;34088;52.232;5.196;2023-04-23T08:16:31;14.85;;;7.95;;
48268;SDS011;34088;52.232;5.196;2023-04-23T08:18:56;15.60;;;7.90;;
48268;SDS011;34088;52.232;5.196;2023-04-23T08:21:22;15.90;;;7.70;;
48268;SDS011;34088;52.232;5.196;2023-04-23T08:23:49;15.48;;;7.97;;
48268;SDS011;34088;52.232;5.196;2023-04-23T08:26:15;13.95;;;7.72;;
48268;SDS011;34088;52.232;5.196;2023-04-23T08:28:40;19.20;;;7.50;;
48268;SDS011;34088;52.232;5.196;2023-04-23T08:31:06;17.10;;;7.65;;
48268;SDS011;34088;52.232;5.196;2023-04-23T08:33:31;12.88;;;6.97;;
48268;SDS011;34088;52.232;5.196;2023-04-23T08:35:57;12.38;;;6.93;;
48268;SDS011;34088;52.232;5.196;2023-04-23T08:38:22;12.18;;;7.13;;
48268;SDS011;34088;52.232;5.196;2023-04-23T08:43:15;13.07;;;6.60;;
48268;SDS011;34088;52.232;5.196;2023-04-23T08:45:43;14.13;;;7.03;;
48268;SDS011;34088;52.232;5.196;2023-04-23T08:48:11;13.30;;;7.00;;
48268;SDS011;34088;52.232;5.196;2023-04-23T08:50:37;12.10;;;7.10;;
48268;SDS011;34088;52.232;5.196;2023-04-23T08:53:03;10.60;;;6.38;;
48268;SDS011;34088;52.232;5.196;2023-04-23T08:55:31;14.68;;;6.07;;
48268;SDS011;34088;52.232;5.196;2023-04-23T08:57:58;10.38;;;5.32;;
48268;SDS011;34088;52.232;5.196;2023-04-23T09:00:25;15.15;;;5.90;;
48268;SDS011;34088;52.232;5.196;2023-04-23T09:02:51;8.57;;;5.07;;
48268;SDS011;34088;52.232;5.196;2023-04-23T09:05:16;12.60;;;4.95;;
48268;SDS011;34088;52.232;5.196;2023-04-23T09:07:42;13.40;;;5.60;;
48268;SDS011;34088;52.232;5.196;2023-04-23T09:10:08;10.13;;;4.40;;
48268;SDS011;34088;52.232;5.196;2023-04-23T09:12:35;10.68;;;4.45;;
48268;SDS011;34088;52.232;5.196;2023-04-23T09:15:02;11.93;;;4.35;;
48268;SDS011;34088;52.232;5.196;2023-04-23T09:17:34;14.00;;;4.82;;
48268;SDS011;34088;52.232;5.196;2023-04-23T09:20:02;12.25;;;4.45;;
48268;SDS011;34088;52.232;5.196;2023-04-23T09:22:45;10.65;;;4.38;;
48268;SDS011;34088;52.232;5.196;2023-04-23T09:25:13;10.65;;;4.50;;
48268;SDS011;34088;52.232;5.196;2023-04-23T09:27:41;10.90;;;4.65;;
48268;SDS011;34088;52.232;5.196;2023-04-23T09:30:07;13.13;;;4.57;;
48268;SDS011;34088;52.232;5.196;2023-04-23T09:32:34;12.27;;;4.05;;
48268;SDS011;34088;52.232;5.196;2023-04-23T09:35:01;13.65;;;4.20;;
48268;SDS011;34088;52.232;5.196;2023-04-23T09:37:28;11.10;;;4.45;;
48268;SDS011;34088;52.232;5.196;2023-04-23T09:39:57;11.52;;;4.22;;
48268;SDS011;34088;52.232;5.196;2023-04-23T09:42:23;9.80;;;4.07;;
48268;SDS011;34088;52.232;5.196;2023-04-23T09:44:59;10.90;;;4.25;;
48268;SDS011;34088;52.232;5.196;2023-04-23T09:47:26;13.15;;;4.20;;
48268;SDS011;34088;52.232;5.196;2023-04-23T09:49:52;11.73;;;4.38;;
48268;SDS011;34088;52.232;5.196;2023-04-23T09:52:18;14.77;;;3.90;;
48268;SDS011;34088;52.232;5.196;2023-04-23T09:54:46;12.55;;;4.00;;
48268;SDS011;34088;52.232;5.196;2023-04-23T09:57:12;11.57;;;4.10;;
48268;SDS011;34088;52.232;5.196;2023-04-23T09:59:38;13.63;;;4.57;;
48268;SDS011;34088;52.232;5.196;2023-04-23T10:02:05;10.88;;;4.20;;
48268;SDS011;34088;52.232;5.196;2023-04-23T10:04:31;14.77;;;4.60;;
48268;SDS011;34088;52.232;5.196;2023-04-23T10:06:58;11.55;;;4.55;;
48268;SDS011;34088;52.232;5.196;2023-04-23T10:09:25;9.60;;;3.85;;
48268;SDS011;34088;52.232;5.196;2023-04-23T10:11:56;10.65;;;3.50;;
48268;SDS011;34088;52.232;5.196;2023-04-23T10:14:23;12.50;;;3.60;;
48268;SDS011;34088;52.232;5.196;2023-04-23T10:16:50;10.20;;;3.70;;
48268;SDS011;34088;52.232;5.196;2023-04-23T10:19:17;9.43;;;3.72;;
48268;SDS011;34088;52.232;5.196;2023-04-23T10:21:45;15.18;;;3.40;;
48268;SDS011;34088;52.232;5.196;2023-04-23T10:24:11;15.35;;;3.88;;
48268;SDS011;34088;52.232;5.196;2023-04-23T10:26:38;11.13;;;3.53;;
48268;SDS011;34088;52.232;5.196;2023-04-23T10:29:11;11.10;;;3.30;;
48268;SDS011;34088;52.232;5.196;2023-04-23T10:31:39;10.57;;;3.80;;
48268;SDS011;34088;52.232;5.196;2023-04-23T10:34:05;9.73;;;3.20;;
48268;SDS011;34088;52.232;5.196;2023-04-23T10:36:32;11.25;;;3.35;;
48268;SDS011;34088;52.232;5.196;2023-04-23T10:38:58;12.68;;;3.60;;
48268;SDS011;34088;52.232;5.196;2023-04-23T10:41:40;9.73;;;3.22;;
48268;SDS011;34088;52.232;5.196;2023-04-23T10:44:11;10.00;;;3.20;;
48268;SDS011;34088;52.232;5.196;2023-04-23T10:46:37;7.65;;;2.92;;
48268;SDS011;34088;52.232;5.196;2023-04-23T10:49:11;8.85;;;3.10;;
48268;SDS011;34088;52.232;5.196;2023-04-23T10:51:40;9.00;;;2.95;;
48268;SDS011;34088;52.232;5.196;2023-04-23T10:54:09;9.50;;;2.90;;
48268;SDS011;34088;52.232;5.196;2023-04-23T10:56:38;11.38;;;2.92;;
48268;SDS011;34088;52.232;5.196;2023-04-23T10:59:16;12.45;;;3.00;;
48268;SDS011;34088;52.232;5.196;2023-04-23T11:01:44;11.25;;;2.80;;
48268;SDS011;34088;52.232;5.196;2023-04-23T11:04:21;9.52;;;2.88;;
48268;SDS011;34088;52.232;5.196;2023-04-23T11:09:30;9.98;;;2.63;;
48268;SDS011;34088;52.232;5.196;2023-04-23T11:11:56;10.57;;;2.47;;
48268;SDS011;34088;52.232;5.196;2023-04-23T11:14:35;5.70;;;2.50;;
48268;SDS011;34088;52.232;5.196;2023-04-23T11:17:02;7.45;;;2.20;;
48268;SDS011;34088;52.232;5.196;2023-04-23T11:19:28;9.82;;;2.85;;
48268;SDS011;34088;52.232;5.196;2023-04-23T11:24:28;8.13;;;2.53;;
48268;SDS011;34088;52.232;5.196;2023-04-23T11:26:54;6.85;;;2.35;;
48268;SDS011;34088;52.232;5.196;2023-04-23T11:29:21;6.82;;;2.42;;
48268;SDS011;34088;52.232;5.196;2023-04-23T11:31:50;9.27;;;3.15;;
48268;SDS011;34088;52.232;5.196;2023-04-23T11:34:17;11.85;;;2.90;;
48268;SDS011;34088;52.232;5.196;2023-04-23T11:36:43;6.45;;;2.33;;
48268;SDS011;34088;52.232;5.196;2023-04-23T11:39:09;8.73;;;2.53;;
48268;SDS011;34088;52.232;5.196;2023-04-23T11:41:36;8.15;;;2.70;;
48268;SDS011;34088;52.232;5.196;2023-04-23T11:44:02;8.30;;;2.60;;
48268;SDS011;34088;52.232;5.196;2023-04-23T11:46:28;8.75;;;2.40;;
48268;SDS011;34088;52.232;5.196;2023-04-23T11:48:55;7.65;;;2.20;;
48268;SDS011;34088;52.232;5.196;2023-04-23T11:51:24;8.93;;;2.50;;
48268;SDS011;34088;52.232;5.196;2023-04-23T11:53:50;6.28;;;2.20;;
48268;SDS011;34088;52.232;5.196;2023-04-23T11:56:16;9.15;;;2.72;;
48268;SDS011;34088;52.232;5.196;2023-04-23T11:58:42;7.55;;;2.20;;
48268;SDS011;34088;52.232;5.196;2023-04-23T12:01:09;8.57;;;2.17;;
48268;SDS011;34088;52.232;5.196;2023-04-23T12:03:37;7.90;;;2.30;;
48268;SDS011;34088;52.232;5.196;2023-04-23T12:06:03;7.68;;;2.45;;
48268;SDS011;34088;52.232;5.196;2023-04-23T12:08:32;8.57;;;2.10;;
48268;SDS011;34088;52.232;5.196;2023-04-23T12:11:00;10.38;;;2.47;;
48268;SDS011;34088;52.232;5.196;2023-04-23T12:13:28;6.75;;;2.22;;
48268;SDS011;34088;52.232;5.196;2023-04-23T12:18:31;5.50;;;1.90;;
48268;SDS011;34088;52.232;5.196;2023-04-23T12:23:26;7.40;;;2.03;;
48268;SDS011;34088;52.232;5.196;2023-04-23T12:25:53;7.75;;;1.95;;
48268;SDS011;34088;52.232;5.196;2023-04-23T12:28:21;8.50;;;2.17;;
48268;SDS011;34088;52.232;5.196;2023-04-23T12:30:48;9.88;;;2.30;;
48268;SDS011;34088;52.232;5.196;2023-04-23T12:33:14;7.38;;;2.28;;
48268;SDS011;34088;52.232;5.196;2023-04-23T12:38:07;5.43;;;2.13;;
48268;SDS011;34088;52.232;5.196;2023-04-23T12:40:33;9.82;;;2.50;;
48268;SDS011;34088;52.232;5.196;2023-04-23T12:42:58;7.25;;;1.85;;
48268;SDS011;34088;52.232;5.196;2023-04-23T12:45:24;7.60;;;1.90;;
48268;SDS011;34088;52.232;5.196;2023-04-23T12:47:50;5.70;;;2.10;;
48268;SDS011;34088;52.232;5.196;2023-04-23T12:50:16;7.22;;;1.92;;
48268;SDS011;34088;52.232;5.196;2023-04-23T12:52:42;9.13;;;2.47;;
48268;SDS011;34088;52.232;5.196;2023-04-23T12:55:08;6.93;;;2.22;;
48268;SDS011;34088;52.232;5.196;2023-04-23T12:57:34;6.05;;;2.05;;
48268;SDS011;34088;52.232;5.196;2023-04-23T13:00:00;6.20;;;2.00;;
48268;SDS011;34088;52.232;5.196;2023-04-23T13:02:27;4.93;;;2.08;;
48268;SDS011;34088;52.232;5.196;2023-04-23T13:04:53;6.20;;;2.28;;
48268;SDS011;34088;52.232;5.196;2023-04-23T13:07:24;7.18;;;2.33;;
48268;SDS011;34088;52.232;5.196;2023-04-23T13:09:50;7.45;;;2.47;;
48268;SDS011;34088;52.232;5.196;2023-04-23T13:12:16;5.45;;;1.90;;
48268;SDS011;34088;52.232;5.196;2023-04-23T13:14:42;7.30;;;2.70;;
48268;SDS011;34088;52.232;5.196;2023-04-23T13:17:08;3.55;;;1.85;;
48268;SDS011;34088;52.232;5.196;2023-04-23T13:19:34;4.07;;;1.92;;
48268;SDS011;34088;52.232;5.196;2023-04-23T13:22:03;7.72;;;1.90;;
48268;SDS011;34088;52.232;5.196;2023-04-23T13:24:29;6.32;;;1.90;;
48268;SDS011;34088;52.232;5.196;2023-04-23T13:26:55;53.15;;;3.60;;
48268;SDS011;34088;52.232;5.196;2023-04-23T13:29:22;5.68;;;2.20;;
48268;SDS011;34088;52.232;5.196;2023-04-23T13:31:48;6.57;;;2.00;;
48268;SDS011;34088;52.232;5.196;2023-04-23T13:34:14;6.47;;;2.20;;
48268;SDS011;34088;52.232;5.196;2023-04-23T13:36:40;16.85;;;3.67;;
48268;SDS011;34088;52.232;5.196;2023-04-23T13:39:06;10.05;;;2.38;;
48268;SDS011;34088;52.232;5.196;2023-04-23T13:41:33;6.85;;;1.90;;
48268;SDS011;34088;52.232;5.196;2023-04-23T13:43:59;7.43;;;2.00;;
48268;SDS011;34088;52.232;5.196;2023-04-23T13:46:25;56.00;;;4.75;;
48268;SDS011;34088;52.232;5.196;2023-04-23T13:48:54;5.25;;;2.20;;
48268;SDS011;34088;52.232;5.196;2023-04-23T13:51:20;9.98;;;2.22;;
48268;SDS011;34088;52.232;5.196;2023-04-23T13:53:46;5.90;;;2.00;;
48268;SDS011;34088;52.232;5.196;2023-04-23T13:56:12;5.55;;;2.03;;
48268;SDS011;34088;52.232;5.196;2023-04-23T13:58:38;9.98;;;2.30;;
48268;SDS011;34088;52.232;5.196;2023-04-23T14:01:10;13.73;;;3.15;;
48268;SDS011;34088;52.232;5.196;2023-04-23T14:03:38;9.98;;;2.22;;
48268;SDS011;34088;52.232;5.196;2023-04-23T14:06:04;6.10;;;2.30;;
48268;SDS011;34088;52.232;5.196;2023-04-23T14:08:31;5.55;;;2.38;;
48268;SDS011;34088;52.232;5.196;2023-04-23T14:10:57;6.57;;;2.28;;
48268;SDS011;34088;52.232;5.196;2023-04-23T14:13:23;6.78;;;2.38;;
48268;SDS011;34088;52.232;5.196;2023-04-23T14:15:49;6.07;;;2.30;;
48268;SDS011;34088;52.232;5.196;2023-04-23T14:18:15;5.80;;;2.50;;
48268;SDS011;34088;52.232;5.196;2023-04-23T14:20:41;5.82;;;2.60;;
48268;SDS011;34088;52.232;5.196;2023-04-23T14:23:22;7.35;;;2.45;;
48268;SDS011;34088;52.232;5.196;2023-04-23T14:25:57;7.63;;;3.10;;
48268;SDS011;34088;52.232;5.196;2023-04-23T14:30:53;10.38;;;3.15;;
48268;SDS011;34088;52.232;5.196;2023-04-23T14:33:19;8.00;;;2.90;;
48268;SDS011;34088;52.232;5.196;2023-04-23T14:35:46;10.25;;;3.60;;
48268;SDS011;34088;52.232;5.196;2023-04-23T14:38:12;6.53;;;2.80;;
48268;SDS011;34088;52.232;5.196;2023-04-23T14:40:37;9.20;;;3.40;;
48268;SDS011;34088;52.232;5.196;2023-04-23T14:43:04;8.40;;;3.47;;
48268;SDS011;34088;52.232;5.196;2023-04-23T14:45:30;9.02;;;2.97;;
48268;SDS011;34088;52.232;5.196;2023-04-23T14:47:56;7.70;;;2.75;;
48268;SDS011;34088;52.232;5.196;2023-04-23T14:50:23;9.48;;;3.15;;
48268;SDS011;34088;52.232;5.196;2023-04-23T14:52:49;6.80;;;3.00;;
48268;SDS011;34088;52.232;5.196;2023-04-23T14:55:16;9.40;;;3.25;;
48268;SDS011;34088;52.232;5.196;2023-04-23T14:57:42;7.35;;;2.75;;
48268;SDS011;34088;52.232;5.196;2023-04-23T15:00:08;8.75;;;3.03;;